Time;durP1;ratioP1;P1;durP2;ratioP2;P2;SDS_P1;SDS_P2;PMS_P1;PMS_P2;Temp;Humidity;BMP_temperature;BMP_pressure;BME280_temperature;BME280_humidity;BME280_pressure;Samples;Min_cycle;Max_cycle;Signal;HPM_P1;HPM_P2
2022/06/15 00:02:06;;;;;;;9.52;4.00;;;14.00;99.90;;;;;;5031047;28;20390;-78
2022/06/15 00:04:33;;;;;;;7.20;4.35;;;14.00;99.90;;;;;;5031240;28;20034;-78
2022/06/15 00:06:59;;;;;;;8.40;4.47;;;14.00;99.90;;;;;;5031256;28;20093;-78
2022/06/15 00:09:25;;;;;;;8.20;4.53;;;14.00;99.90;;;;;;5031097;28;20017;-78
2022/06/15 00:11:51;;;;;;;8.75;4.75;;;14.00;99.90;;;;;;5030928;28;20068;-78
2022/06/15 00:14:21;;;;;;;13.73;4.90;;;14.00;99.90;;;;;;5030895;28;20134;-78
2022/06/15 00:16:46;;;;;;;10.65;4.63;;;14.00;99.90;;;;;;5029791;28;20502;-78
2022/06/15 00:19:12;;;;;;;9.55;4.57;;;14.00;99.90;;;;;;5019674;28;20057;-78
2022/06/15 00:21:37;;;;;;;8.23;4.50;;;14.00;99.90;;;;;;5013436;28;20368;-78
2022/06/15 00:24:03;;;;;;;8.50;4.45;;;14.00;99.90;;;;;;5030816;28;20026;-78
2022/06/15 00:26:29;;;;;;;8.32;4.50;;;14.00;99.90;;;;;;5031229;28;20442;-78
2022/06/15 00:28:55;;;;;;;6.95;4.20;;;14.00;99.90;;;;;;5030814;28;20037;-78
2022/06/15 00:31:21;;;;;;;8.88;4.70;;;14.00;99.90;;;;;;5030506;28;20022;-78
2022/06/15 00:33:47;;;;;;;9.73;4.78;;;13.90;99.90;;;;;;5031117;28;20521;-78
2022/06/15 00:36:17;;;;;;;7.68;4.53;;;13.90;99.90;;;;;;5013075;28;20021;-78
2022/06/15 00:38:46;;;;;;;8.55;4.50;;;13.90;99.90;;;;;;5030681;28;20425;-78
2022/06/15 00:41:16;;;;;;;8.23;5.13;;;13.90;99.90;;;;;;5031154;28;20491;-78
2022/06/15 00:44:20;;;;;;;7.38;4.40;;;13.90;99.90;;;;;;5031367;28;20068;-78
2022/06/15 00:46:52;;;;;;;10.55;4.55;;;13.90;99.90;;;;;;4989354;28;20455;-78
2022/06/15 00:49:21;;;;;;;9.10;4.93;;;13.80;99.90;;;;;;5024804;28;20034;-78
2022/06/15 00:51:50;;;;;;;8.20;4.78;;;13.80;99.90;;;;;;5013183;28;20108;-78
2022/06/15 00:54:17;;;;;;;7.20;4.68;;;13.80;99.90;;;;;;5030817;28;20582;-78
2022/06/15 00:56:43;;;;;;;7.80;4.78;;;13.80;99.90;;;;;;5030768;28;20478;-78
2022/06/15 00:59:14;;;;;;;9.40;4.72;;;13.80;99.90;;;;;;5012763;28;20033;-78
2022/06/15 01:01:40;;;;;;;8.95;4.70;;;13.70;99.90;;;;;;5030569;28;20093;-78
2022/06/15 01:04:06;;;;;;;9.55;5.00;;;13.70;99.90;;;;;;5030839;28;20036;-78
2022/06/15 01:07:04;;;;;;;9.68;4.53;;;13.70;99.90;;;;;;5030682;28;20021;-78
2022/06/15 01:09:34;;;;;;;9.50;5.07;;;13.60;99.90;;;;;;5030386;28;20029;-78
2022/06/15 01:12:31;;;;;;;8.70;4.50;;;13.60;99.90;;;;;;5030487;28;20398;-78
2022/06/15 01:15:13;;;;;;;8.48;5.40;;;13.60;99.90;;;;;;5028392;28;20041;-78
2022/06/15 01:17:42;;;;;;;10.75;5.80;;;13.50;99.90;;;;;;5011471;28;20025;-78
2022/06/15 01:20:31;;;;;;;7.68;4.85;;;13.50;99.90;;;;;;5028394;28;20435;-78
2022/06/15 01:23:29;;;;;;;7.13;4.55;;;13.50;99.90;;;;;;5030032;28;20028;-78
2022/06/15 01:25:57;;;;;;;10.07;5.18;;;13.40;99.90;;;;;;5030747;28;20107;-78
2022/06/15 01:28:41;;;;;;;8.32;4.60;;;13.40;99.90;;;;;;5034060;28;20045;-78
2022/06/15 01:31:31;;;;;;;10.25;4.85;;;13.40;99.90;;;;;;5034519;28;20040;-78
2022/06/15 01:34:02;;;;;;;9.13;4.80;;;13.40;99.90;;;;;;5034247;28;20366;-78
2022/06/15 01:36:44;;;;;;;7.75;4.57;;;13.30;99.90;;;;;;5033778;28;20026;-78
2022/06/15 01:39:26;;;;;;;8.93;4.60;;;13.30;99.90;;;;;;5034011;28;20040;-78
2022/06/15 01:42:14;;;;;;;9.68;5.00;;;13.20;99.90;;;;;;5034219;28;20018;-78
2022/06/15 01:44:45;;;;;;;9.10;4.75;;;13.20;99.90;;;;;;5033595;28;20053;-78
2022/06/15 01:47:14;;;;;;;12.57;5.38;;;13.20;99.90;;;;;;5033139;28;20034;-78
2022/06/15 01:49:54;;;;;;;7.03;4.82;;;13.10;99.90;;;;;;5033923;28;20072;-78
2022/06/15 01:52:24;;;;;;;10.15;5.22;;;13.10;99.90;;;;;;5033874;28;20379;-78
2022/06/15 01:55:06;;;;;;;11.43;5.30;;;13.00;99.90;;;;;;5033743;28;20028;-78
2022/06/15 01:57:36;;;;;;;9.13;4.85;;;13.00;99.90;;;;;;5033304;28;20025;-78
2022/06/15 02:00:14;;;;;;;8.23;4.95;;;13.00;99.90;;;;;;5033721;28;20477;-78
2022/06/15 02:03:07;;;;;;;11.88;5.97;;;13.00;99.90;;;;;;5033693;28;20026;-78
2022/06/15 02:05:45;;;;;;;8.15;5.30;;;12.90;99.90;;;;;;5020398;28;20025;-78
2022/06/15 02:08:35;;;;;;;8.50;5.55;;;12.90;99.90;;;;;;5033647;28;20024;-77
2022/06/15 02:11:14;;;;;;;12.65;5.65;;;12.90;99.90;;;;;;5033634;28;20526;-78
2022/06/15 02:14:19;;;;;;;9.35;5.50;;;12.90;99.90;;;;;;5033576;28;20026;-78
2022/06/15 02:16:52;;;;;;;8.80;5.90;;;12.90;99.90;;;;;;5032051;28;20025;-78
2022/06/15 02:19:23;;;;;;;10.77;5.40;;;12.80;99.90;;;;;;5028492;28;20032;-78
2022/06/15 02:21:52;;;;;;;8.05;5.20;;;12.80;99.90;;;;;;5015680;28;20113;-78
2022/06/15 02:24:21;;;;;;;8.70;5.20;;;12.80;99.90;;;;;;5033053;28;20029;-78
2022/06/15 02:26:48;;;;;;;12.27;5.90;;;12.80;99.90;;;;;;5015369;28;20116;-78
2022/06/15 02:29:21;;;;;;;10.02;5.55;;;12.70;99.90;;;;;;5032582;28;20037;-78
2022/06/15 02:31:47;;;;;;;9.10;5.05;;;12.70;99.90;;;;;;5032876;28;20109;-78
2022/06/15 02:34:13;;;;;;;12.38;6.03;;;12.70;99.90;;;;;;5032958;28;20097;-78
2022/06/15 02:36:39;;;;;;;8.43;6.05;;;12.70;99.90;;;;;;5033233;28;20033;-78
2022/06/15 02:39:07;;;;;;;13.85;6.03;;;12.60;99.90;;;;;;5033302;28;20025;-78
2022/06/15 02:41:34;;;;;;;8.93;5.40;;;12.60;99.90;;;;;;5033637;28;20431;-78
2022/06/15 02:44:01;;;;;;;10.68;6.03;;;12.50;99.90;;;;;;5033323;28;20100;-78
2022/06/15 02:46:29;;;;;;;8.80;5.85;;;12.40;99.90;;;;;;5033203;28;20017;-78
2022/06/15 02:48:56;;;;;;;10.00;5.43;;;12.40;99.90;;;;;;5033505;28;20032;-78
2022/06/15 02:51:42;;;;;;;8.60;5.47;;;12.30;99.90;;;;;;5033372;28;20028;-78
2022/06/15 02:54:21;;;;;;;8.07;5.70;;;12.30;99.90;;;;;;5033804;28;20425;-78
2022/06/15 02:56:48;;;;;;;11.90;5.60;;;12.20;99.90;;;;;;5032395;28;20030;-77
2022/06/15 02:59:13;;;;;;;9.32;5.93;;;12.20;99.90;;;;;;5031650;28;20117;-78
2022/06/15 03:01:39;;;;;;;10.43;6.45;;;12.20;99.90;;;;;;5032230;28;20078;-77
2022/06/15 03:04:04;;;;;;;13.15;6.70;;;12.10;99.90;;;;;;5032303;28;20025;-78
2022/06/15 03:06:30;;;;;;;10.10;6.07;;;12.10;99.90;;;;;;5031888;28;20030;-78
2022/06/15 03:08:57;;;;;;;15.65;6.30;;;12.10;99.90;;;;;;5032370;28;20059;-78
2022/06/15 03:11:24;;;;;;;10.40;6.32;;;12.10;99.90;;;;;;5031862;28;20099;-78
2022/06/15 03:13:51;;;;;;;9.75;5.95;;;12.10;99.90;;;;;;5014990;28;20331;-78
2022/06/15 03:16:17;;;;;;;10.30;6.72;;;12.00;99.90;;;;;;5032038;28;20053;-78
2022/06/15 03:18:43;;;;;;;7.40;5.63;;;12.00;99.90;;;;;;5027720;28;20560;-78
2022/06/15 03:21:09;;;;;;;10.40;5.82;;;12.00;99.90;;;;;;5014179;28;20044;-78
2022/06/15 03:23:34;;;;;;;10.68;6.30;;;12.00;99.90;;;;;;5032175;28;20482;-78
2022/06/15 03:26:01;;;;;;;10.52;5.97;;;12.00;99.90;;;;;;5032160;28;20021;-78
2022/06/15 03:28:27;;;;;;;10.65;6.18;;;12.00;99.90;;;;;;5031965;28;20116;-78
2022/06/15 03:30:53;;;;;;;9.38;5.93;;;11.90;99.90;;;;;;5007738;28;20164;-78
2022/06/15 03:33:19;;;;;;;13.70;6.50;;;12.00;99.90;;;;;;5031563;28;20466;-78
2022/06/15 03:35:45;;;;;;;12.43;6.57;;;11.90;99.90;;;;;;5031723;28;20033;-78
2022/06/15 03:38:11;;;;;;;11.43;6.25;;;11.90;99.90;;;;;;5031621;28;20029;-77
2022/06/15 03:40:43;;;;;;;9.00;6.00;;;11.90;99.90;;;;;;5028360;28;20743;-77
2022/06/15 03:43:09;;;;;;;12.57;6.95;;;11.90;99.90;;;;;;5025608;28;20051;-77
2022/06/15 03:45:35;;;;;;;13.90;6.90;;;11.90;99.90;;;;;;5031821;28;20068;-77
2022/06/15 03:48:02;;;;;;;12.98;6.30;;;11.90;99.90;;;;;;5009550;28;20036;-77
2022/06/15 03:50:31;;;;;;;11.05;5.65;;;11.90;99.90;;;;;;5011736;28;20058;-78
2022/06/15 03:52:58;;;;;;;11.73;6.00;;;11.90;99.90;;;;;;5017693;28;20422;-78
2022/06/15 03:55:24;;;;;;;9.50;5.50;;;11.90;99.90;;;;;;5031784;28;20060;-78
2022/06/15 03:57:49;;;;;;;10.27;6.40;;;11.90;99.90;;;;;;5031351;28;20447;-77
2022/06/15 04:00:18;;;;;;;9.95;5.60;;;11.90;99.90;;;;;;5018545;28;20481;-77
2022/06/15 04:02:45;;;;;;;10.98;6.18;;;11.90;99.90;;;;;;5021430;28;20046;-77
2022/06/15 04:05:27;;;;;;;10.25;5.93;;;11.90;99.90;;;;;;5017759;28;20032;-77
2022/06/15 04:10:37;;;;;;;8.88;6.03;;;11.80;99.90;;;;;;5032955;28;20037;-77
2022/06/15 04:13:03;;;;;;;12.68;6.20;;;11.90;99.90;;;;;;5030145;28;20029;-77
2022/06/15 04:15:29;;;;;;;8.88;5.75;;;11.90;99.90;;;;;;5019963;28;20056;-75
2022/06/15 04:17:55;;;;;;;9.18;6.60;;;11.90;99.90;;;;;;4988671;28;20033;-75
2022/06/15 04:20:33;;;;;;;9.75;5.60;;;11.90;99.90;;;;;;5027255;28;20043;-75
2022/06/15 04:23:00;;;;;;;10.25;6.72;;;11.90;99.90;;;;;;5003821;28;20371;-82
2022/06/15 04:25:26;;;;;;;9.57;6.50;;;12.00;99.90;;;;;;4993577;28;20037;-74
2022/06/15 04:27:52;;;;;;;15.30;6.40;;;12.00;99.90;;;;;;5007570;28;20025;-74
2022/06/15 04:30:17;;;;;;;14.25;6.72;;;12.10;99.90;;;;;;5028941;28;20069;-74
2022/06/15 04:32:43;;;;;;;13.68;6.35;;;12.10;99.90;;;;;;5028372;28;20451;-74
2022/06/15 04:35:09;;;;;;;12.50;6.72;;;12.20;99.90;;;;;;5026704;28;20025;-74
2022/06/15 04:37:37;;;;;;;9.82;6.28;;;12.20;99.90;;;;;;5024901;28;20022;-74
2022/06/15 04:40:04;;;;;;;8.55;6.05;;;12.30;99.90;;;;;;5030289;28;20017;-76
2022/06/15 04:42:29;;;;;;;11.77;6.57;;;12.40;99.90;;;;;;5029963;28;20847;-76
2022/06/15 04:44:55;;;;;;;14.88;6.93;;;12.50;99.90;;;;;;5029637;28;20250;-76
2022/06/15 04:47:20;;;;;;;11.32;6.40;;;12.60;99.90;;;;;;5029020;28;20022;-76
2022/06/15 04:49:46;;;;;;;12.55;6.28;;;12.70;99.90;;;;;;5028596;28;20088;-76
2022/06/15 04:52:12;;;;;;;11.98;7.30;;;12.80;99.90;;;;;;5029210;28;20018;-76
2022/06/15 04:54:37;;;;;;;11.30;6.93;;;12.90;99.90;;;;;;5028315;28;20104;-76
2022/06/15 04:57:41;;;;;;;13.95;7.53;;;13.00;99.90;;;;;;5029221;28;20021;-76
2022/06/15 05:00:11;;;;;;;10.25;7.15;;;13.10;99.90;;;;;;5020826;28;20398;-75
2022/06/15 05:02:40;;;;;;;10.02;7.72;;;13.20;99.90;;;;;;5018735;28;20033;-75
2022/06/15 05:05:06;;;;;;;12.75;6.90;;;13.20;99.90;;;;;;5029582;28;20018;-74
2022/06/15 05:07:31;;;;;;;12.45;7.63;;;13.30;99.90;;;;;;5012609;28;20045;-74
2022/06/15 05:09:57;;;;;;;14.30;6.50;;;13.50;99.90;;;;;;5030752;28;20116;-75
2022/06/15 05:12:23;;;;;;;10.63;6.50;;;13.60;99.90;;;;;;5034340;28;20470;-74
2022/06/15 05:14:50;;;;;;;13.95;6.43;;;13.80;99.90;;;;;;5034324;28;20037;-74
2022/06/15 05:17:17;;;;;;;13.38;6.40;;;14.10;99.90;;;;;;5035805;28;20484;-74
2022/06/15 05:19:42;;;;;;;15.77;7.38;;;14.30;99.90;;;;;;5034615;28;20044;-75
2022/06/15 05:22:08;;;;;;;18.23;7.80;;;14.60;99.90;;;;;;5030252;28;20029;-74
2022/06/15 05:24:34;;;;;;;12.02;7.07;;;14.80;99.90;;;;;;5032069;28;20096;-74
2022/06/15 05:27:00;;;;;;;11.23;6.88;;;15.00;99.90;;;;;;5032320;28;20022;-74
2022/06/15 05:29:26;;;;;;;10.30;6.65;;;15.20;99.90;;;;;;5030926;28;20131;-74
2022/06/15 05:31:53;;;;;;;13.60;6.00;;;15.30;99.90;;;;;;5030918;28;20884;-74
2022/06/15 05:34:18;;;;;;;14.40;6.43;;;15.50;99.90;;;;;;5030614;28;20022;-74
2022/06/15 05:36:44;;;;;;;10.95;6.43;;;15.70;99.90;;;;;;5032891;28;20025;-68
2022/06/15 05:39:10;;;;;;;16.05;6.20;;;15.80;99.90;;;;;;5033176;28;20029;-70
2022/06/15 05:41:36;;;;;;;10.80;6.50;;;16.00;99.90;;;;;;5035679;28;20204;-69
2022/06/15 05:46:39;;;;;;;11.55;6.30;;;16.10;99.90;;;;;;5027594;28;20040;-70
2022/06/15 05:49:05;;;;;;;15.68;6.70;;;16.20;99.90;;;;;;5028446;28;20042;-70
2022/06/15 05:51:30;;;;;;;11.23;5.70;;;16.30;99.90;;;;;;5027300;28;20029;-70
2022/06/15 05:53:56;;;;;;;18.80;7.30;;;16.30;99.90;;;;;;5028848;28;20549;-70
2022/06/15 05:56:22;;;;;;;13.32;7.07;;;16.40;99.90;;;;;;5013080;28;20036;-70
2022/06/15 05:58:49;;;;;;;12.57;6.57;;;16.60;99.90;;;;;;5027892;28;20071;-70
2022/06/15 06:01:20;;;;;;;11.55;6.70;;;16.70;99.90;;;;;;5027142;28;20029;-70
2022/06/15 06:03:45;;;;;;;14.45;6.05;;;16.90;99.90;;;;;;5026816;28;20038;-70
2022/06/15 06:06:11;;;;;;;13.13;6.38;;;17.00;99.90;;;;;;5030595;28;20101;-76
2022/06/15 06:08:37;;;;;;;15.98;5.55;;;17.20;99.90;;;;;;5023558;28;20044;-76
2022/06/15 06:11:02;;;;;;;12.32;4.80;;;17.30;99.90;;;;;;5022586;28;20072;-76
2022/06/15 06:13:29;;;;;;;11.43;4.25;;;17.50;99.90;;;;;;5022138;28;20041;-76
2022/06/15 06:15:55;;;;;;;13.70;4.40;;;17.70;99.90;;;;;;5023667;28;20767;-76
2022/06/15 06:18:22;;;;;;;10.45;3.58;;;17.80;99.90;;;;;;5006943;28;20439;-76
2022/06/15 06:20:48;;;;;;;9.23;4.38;;;18.00;99.90;;;;;;5026067;28;20056;-76
2022/06/15 06:23:14;;;;;;;11.35;4.07;;;18.00;99.90;;;;;;5025232;28;20509;-76
2022/06/15 06:25:41;;;;;;;6.68;3.70;;;18.20;99.90;;;;;;5026781;28;20026;-76
2022/06/15 06:28:18;;;;;;;10.32;3.92;;;18.40;99.90;;;;;;4985993;28;1053380;-76
2022/06/15 06:30:43;;;;;;;7.38;3.42;;;18.50;99.90;;;;;;5024308;28;20115;-77
2022/06/15 06:33:09;;;;;;;14.30;4.47;;;18.70;99.90;;;;;;5011742;28;20037;-77
2022/06/15 06:35:40;;;;;;;9.98;3.60;;;18.80;99.90;;;;;;5011361;28;20087;-76
2022/06/15 06:38:05;;;;;;;10.13;3.97;;;18.90;99.90;;;;;;5022706;28;20037;-76
2022/06/15 06:40:32;;;;;;;9.82;3.85;;;19.10;99.90;;;;;;5026635;28;20048;-77
2022/06/15 06:42:58;;;;;;;7.60;3.70;;;19.20;99.90;;;;;;5030593;28;20029;-77
2022/06/15 06:45:23;;;;;;;7.03;3.65;;;19.30;99.90;;;;;;5029992;28;20167;-77
2022/06/15 06:47:49;;;;;;;8.98;3.65;;;19.40;99.90;;;;;;5013577;28;20032;-77
2022/06/15 06:50:14;;;;;;;5.97;3.80;;;19.50;99.90;;;;;;5028010;28;20576;-77
2022/06/15 06:52:41;;;;;;;6.15;3.47;;;19.70;99.90;;;;;;5026664;28;20689;-77
2022/06/15 06:55:07;;;;;;;8.57;3.67;;;19.80;99.90;;;;;;5025997;28;20025;-77
2022/06/15 06:57:33;;;;;;;12.70;3.75;;;19.90;99.90;;;;;;5024326;28;20033;-77
2022/06/15 06:59:58;;;;;;;7.53;3.35;;;20.10;99.90;;;;;;5025949;28;20032;-77
2022/06/15 07:02:24;;;;;;;9.18;3.70;;;20.10;99.90;;;;;;5025851;28;20731;-77
2022/06/15 07:04:49;;;;;;;6.88;3.40;;;20.20;99.90;;;;;;5025759;28;20116;-77
2022/06/15 07:07:15;;;;;;;7.43;3.17;;;20.30;99.90;;;;;;5024409;28;20047;-77
2022/06/15 07:09:41;;;;;;;8.63;3.15;;;20.30;99.90;;;;;;5025895;28;20789;-77
2022/06/15 07:12:07;;;;;;;8.30;3.35;;;20.30;99.90;;;;;;5012606;28;20124;-77
2022/06/15 07:14:32;;;;;;;10.18;3.20;;;20.40;99.90;;;;;;5025016;28;20560;-77
2022/06/15 07:16:58;;;;;;;7.72;3.33;;;20.50;99.90;;;;;;5022714;28;20099;-77
2022/06/15 07:19:23;;;;;;;8.95;3.67;;;20.60;99.90;;;;;;5024498;28;20033;-77
2022/06/15 07:21:49;;;;;;;8.82;3.15;;;20.60;99.90;;;;;;5024887;28;20382;-77
2022/06/15 07:24:16;;;;;;;6.63;2.80;;;20.70;99.90;;;;;;5023635;28;20406;-77
2022/06/15 07:26:47;;;;;;;7.93;3.25;;;20.70;99.90;;;;;;5024747;28;20046;-77
2022/06/15 07:29:19;;;;;;;8.75;3.40;;;20.80;99.90;;;;;;5014500;28;20042;-69
2022/06/15 07:31:49;;;;;;;6.38;3.10;;;20.80;99.90;;;;;;5029189;28;20591;-69
2022/06/15 07:34:14;;;;;;;7.85;3.38;;;20.90;99.90;;;;;;5029313;28;20033;-68
2022/06/15 07:36:46;;;;;;;8.82;3.10;;;20.90;99.90;;;;;;5021870;28;20159;-70
2022/06/15 07:39:14;;;;;;;7.97;3.67;;;21.00;99.90;;;;;;5018999;28;20103;-71
2022/06/15 07:41:40;;;;;;;8.25;2.63;;;21.00;99.90;;;;;;5022623;28;20219;-71
2022/06/15 07:44:06;;;;;;;5.93;3.25;;;21.10;99.90;;;;;;5023104;28;20037;-69
2022/06/15 07:46:39;;;;;;;5.93;2.60;;;21.10;99.90;;;;;;5029024;28;20095;-68
2022/06/15 07:51:58;;;;;;;10.60;3.17;;;21.30;99.90;;;;;;5028322;28;20036;-68
2022/06/15 07:54:28;;;;;;;8.80;3.05;;;21.40;99.90;;;;;;5028721;28;20050;-68
2022/06/15 07:56:55;;;;;;;8.18;3.08;;;21.50;99.90;;;;;;5028698;28;20037;-69
2022/06/15 07:59:22;;;;;;;8.60;3.28;;;21.50;99.90;;;;;;5028731;28;20025;-69
2022/06/15 08:01:48;;;;;;;6.15;3.28;;;21.60;99.90;;;;;;5030758;28;20365;-68
2022/06/15 08:04:15;;;;;;;7.45;2.83;;;21.70;99.90;;;;;;5032256;28;20033;-69
2022/06/15 08:06:43;;;;;;;6.95;3.22;;;21.70;99.90;;;;;;5030066;28;20025;-69
2022/06/15 08:09:11;;;;;;;8.45;3.05;;;21.70;99.90;;;;;;5028757;28;20204;-69
2022/06/15 08:12:28;;;;;;;11.00;3.22;;;21.90;99.90;;;;;;5029364;28;20033;-68
2022/06/15 08:14:30;;;;;;;7.97;2.72;;;22.00;99.90;;;;;;5018319;28;20048;-70
2022/06/15 08:16:55;;;;;;;4.78;2.70;;;22.10;99.90;;;;;;5028628;28;20105;-70
2022/06/15 08:19:21;;;;;;;6.80;3.08;;;22.10;99.90;;;;;;5028822;28;20418;-69
2022/06/15 08:21:47;;;;;;;7.88;2.78;;;22.20;99.90;;;;;;5029611;28;20033;-69
2022/06/15 08:24:12;;;;;;;9.68;3.17;;;22.30;99.90;;;;;;5028770;28;20131;-68
2022/06/15 08:26:43;;;;;;;14.48;2.85;;;22.30;99.90;;;;;;5028793;28;20026;-69
2022/06/15 08:29:17;;;;;;;9.43;2.92;;;22.30;99.90;;;;;;5018644;28;20050;-68
2022/06/15 08:31:46;;;;;;;10.35;2.92;;;22.40;99.90;;;;;;5028560;28;20510;-68
2022/06/15 08:34:11;;;;;;;9.30;3.00;;;22.50;99.90;;;;;;5028057;28;20041;-69
2022/06/15 08:36:38;;;;;;;5.93;2.83;;;22.60;99.90;;;;;;5026368;28;20046;-69
2022/06/15 08:39:05;;;;;;;5.07;2.83;;;22.60;99.90;;;;;;5028440;28;20028;-70
2022/06/15 08:41:54;;;;;;;5.47;2.75;;;22.70;99.90;;;;;;5031797;28;20087;-69
2022/06/15 08:45:01;;;;;;;7.82;2.90;;;22.70;99.90;;;;;;5031222;28;20159;-69
2022/06/15 08:47:45;;;;;;;8.15;3.03;;;22.80;99.90;;;;;;5004316;28;20124;-68
2022/06/15 08:50:51;;;;;;;7.45;2.88;;;22.90;99.90;;;;;;5031206;28;20097;-69
2022/06/15 08:53:23;;;;;;;;;;;23.00;99.90;;;;;;4951499;28;20393;-68
2022/06/15 08:55:51;;;;;;;9.35;2.85;;;23.10;99.90;;;;;;5016651;28;19995;-69
2022/06/15 08:58:34;;;;;;;6.32;3.00;;;23.20;99.90;;;;;;5013993;28;20021;-69
2022/06/15 09:01:07;;;;;;;9.60;2.42;;;23.30;99.90;;;;;;5031210;28;20096;-70
2022/06/15 09:03:53;;;;;;;7.45;3.20;;;23.30;99.90;;;;;;5037342;28;20378;-69
2022/06/15 09:06:24;;;;;;;9.25;3.80;;;23.40;99.90;;;;;;5010284;28;20029;-69
2022/06/15 09:08:56;;;;;;;5.75;3.08;;;23.40;99.90;;;;;;5031057;28;20025;-69
2022/06/15 09:11:28;;;;;;;9.23;3.17;;;23.50;99.90;;;;;;5030924;28;20027;-69
2022/06/15 09:14:22;;;;;;;8.52;3.45;;;23.70;99.90;;;;;;5030623;28;20079;-70
2022/06/15 09:17:09;;;;;;;10.95;5.22;;;23.80;99.90;;;;;;5030691;28;20104;-69
2022/06/15 09:19:53;;;;;;;7.35;3.40;;;23.80;99.90;;;;;;5026926;28;20346;-69
2022/06/15 09:22:23;;;;;;;7.78;3.00;;;24.00;99.90;;;;;;5030915;28;20070;-69
2022/06/15 09:24:51;;;;;;;5.43;2.92;;;24.10;99.90;;;;;;5031008;28;20029;-68
2022/06/15 09:27:35;;;;;;;7.72;3.20;;;24.30;99.90;;;;;;5030727;28;20021;-68
2022/06/15 09:30:09;;;;;;;7.90;2.83;;;24.40;99.90;;;;;;5030726;28;20042;-68
2022/06/15 09:32:40;;;;;;;6.43;3.00;;;24.50;99.90;;;;;;5030742;28;20072;-69
2022/06/15 09:35:16;;;;;;;6.47;2.88;;;24.70;99.90;;;;;;5030689;28;20121;-69
2022/06/15 09:37:46;;;;;;;7.07;2.78;;;24.90;99.90;;;;;;5025729;28;20025;-69
2022/06/15 09:40:15;;;;;;;7.68;3.38;;;25.10;99.90;;;;;;5023906;28;20116;-69
2022/06/15 09:42:54;;;;;;;6.47;3.20;;;25.30;99.90;;;;;;5026157;28;20116;-69
2022/06/15 09:45:38;;;;;;;5.80;2.58;;;25.60;99.90;;;;;;5026822;28;20458;-69
2022/06/15 09:48:13;;;;;;;7.18;2.85;;;26.10;99.90;;;;;;5023832;28;20030;-69
2022/06/15 09:50:40;;;;;;;8.18;3.30;;;26.30;99.90;;;;;;5033954;28;20017;-69
2022/06/15 09:53:34;;;;;;;7.55;2.97;;;26.60;99.90;;;;;;5030532;28;20108;-70
2022/06/15 09:56:06;;;;;;;5.50;2.88;;;26.90;99.90;;;;;;5033382;28;20025;-68
2022/06/15 09:58:38;;;;;;;4.93;3.05;;;27.20;99.90;;;;;;5034211;28;20077;-69
2022/06/15 10:01:07;;;;;;;5.25;2.72;;;27.60;99.90;;;;;;5035273;28;20033;-66
2022/06/15 10:03:46;;;;;;;7.97;2.40;;;27.70;99.90;;;;;;5033367;28;20061;-67
2022/06/15 10:06:28;;;;;;;4.07;2.70;;;27.80;99.90;;;;;;5034021;28;20031;-66
2022/06/15 10:08:54;;;;;;;9.20;2.70;;;28.20;99.90;;;;;;5033439;28;20038;-67
2022/06/15 10:11:36;;;;;;;6.28;3.08;;;28.30;99.90;;;;;;5033620;28;20029;-67
2022/06/15 10:14:24;;;;;;;6.28;2.83;;;28.50;99.90;;;;;;5034600;28;20033;-66
2022/06/15 10:16:56;;;;;;;6.45;3.25;;;28.70;99.90;;;;;;5030477;28;20053;-68
2022/06/15 10:19:24;;;;;;;6.35;2.75;;;28.60;99.90;;;;;;5025401;28;20101;-67
2022/06/15 10:21:56;;;;;;;6.57;3.05;;;28.50;99.90;;;;;;5034233;28;20031;-67
2022/06/15 10:24:27;;;;;;;5.35;2.90;;;28.50;99.90;;;;;;5033930;28;20029;-66
2022/06/15 10:27:18;;;;;;;6.07;2.88;;;28.50;99.90;;;;;;5033521;28;20018;-66
2022/06/15 10:30:17;;;;;;;6.10;2.60;;;28.60;99.90;;;;;;5033535;28;20057;-68
2022/06/15 10:32:59;;;;;;;4.90;2.60;;;28.50;99.90;;;;;;5032485;28;20022;-69
2022/06/15 10:35:28;;;;;;;5.18;2.63;;;28.60;99.90;;;;;;5033160;28;20562;-67
2022/06/15 10:37:57;;;;;;;6.53;2.55;;;28.90;99.90;;;;;;5032889;28;20040;-67
2022/06/15 10:40:29;;;;;;;6.40;2.60;;;29.00;99.90;;;;;;5033180;28;20036;-67
2022/06/15 10:43:22;;;;;;;7.82;2.75;;;29.20;99.90;;;;;;5033219;28;20070;-68
2022/06/15 10:45:56;;;;;;;5.50;2.75;;;29.20;99.90;;;;;;5032665;28;20021;-68
2022/06/15 10:48:31;;;;;;;7.07;3.03;;;29.10;99.90;;;;;;5032624;28;20565;-68
2022/06/15 10:51:08;;;;;;;6.28;3.15;;;29.30;99.90;;;;;;5032595;28;20030;-68
2022/06/15 10:53:50;;;;;;;7.63;2.88;;;29.40;99.90;;;;;;5032910;28;20474;-68
2022/06/15 11:02:07;;;;;;;4.88;2.60;;;29.50;99.90;;;;;;5034288;28;20045;-68
2022/06/15 11:04:36;;;;;;;5.13;2.47;;;29.50;99.90;;;;;;5034134;28;20109;-68
2022/06/15 11:07:11;;;;;;;6.53;2.22;;;29.60;98.70;;;;;;5033578;28;20089;-69
2022/06/15 11:09:59;;;;;;;3.53;2.00;;;29.90;98.60;;;;;;5015490;28;20052;-69
2022/06/15 11:12:43;;;;;;;5.20;2.50;;;29.90;99.30;;;;;;5030873;28;20029;-69
2022/06/15 11:15:20;;;;;;;5.22;2.33;;;30.20;97.70;;;;;;5034370;28;20030;-68
2022/06/15 11:18:01;;;;;;;6.18;2.03;;;30.30;97.00;;;;;;5033038;28;20463;-68
2022/06/15 11:20:42;;;;;;;7.70;2.67;;;30.60;96.00;;;;;;5034147;28;20088;-69
2022/06/15 11:23:11;;;;;;;4.80;2.30;;;30.80;95.70;;;;;;5032369;28;20022;-68
2022/06/15 11:26:51;;;;;;;5.00;2.30;;;31.20;95.30;;;;;;5032974;28;20029;-68
2022/06/15 11:28:53;;;;;;;5.70;2.55;;;31.40;94.70;;;;;;5029002;28;20053;-69
2022/06/15 11:31:20;;;;;;;5.28;2.20;;;31.50;94.00;;;;;;5029292;28;20029;-69
2022/06/15 11:33:59;;;;;;;4.13;2.45;;;31.20;94.80;;;;;;5030929;28;20051;-69
2022/06/15 11:36:38;;;;;;;4.82;2.40;;;31.00;96.00;;;;;;5032852;28;20033;-69
2022/06/15 11:39:13;;;;;;;3.90;1.95;;;31.00;94.90;;;;;;5029802;28;20104;-68
2022/06/15 11:41:44;;;;;;;5.97;2.42;;;31.10;95.40;;;;;;5027365;28;20076;-68
2022/06/15 11:44:19;;;;;;;7.57;2.40;;;31.10;94.30;;;;;;5032425;28;20037;-68
2022/06/15 11:47:09;;;;;;;5.15;2.20;;;31.40;96.10;;;;;;5032332;28;20025;-68
2022/06/15 11:49:50;;;;;;;9.05;2.45;;;31.60;91.20;;;;;;5020749;28;20058;-67
2022/06/15 11:52:34;;;;;;;7.32;2.40;;;31.70;91.60;;;;;;5032542;28;20025;-68
2022/06/15 11:55:08;;;;;;;;;;;31.80;91.30;;;;;;5033046;28;20420;-68
2022/06/15 11:58:12;;;;;;;6.97;2.45;;;31.70;90.80;;;;;;5029443;28;19905;-68
2022/06/15 12:00:56;;;;;;;3.05;1.85;;;31.80;91.50;;;;;;5030539;28;20021;-67
2022/06/15 12:03:28;;;;;;;5.03;1.90;;;31.90;91.60;;;;;;5024100;28;20439;-68
2022/06/15 12:06:08;;;;;;;4.72;2.10;;;32.20;89.30;;;;;;5029457;28;20096;-68
2022/06/15 12:09:25;;;;;;;5.53;1.83;;;32.20;88.70;;;;;;5019344;28;20021;-67
2022/06/15 12:14:49;;;;;;;7.43;2.10;;;32.50;88.00;;;;;;5019102;28;20036;-68
2022/06/15 12:17:42;;;;;;;8.23;1.98;;;32.60;86.80;;;;;;5025723;28;20034;-68
2022/06/15 12:20:34;;;;;;;4.82;1.95;;;32.80;84.10;;;;;;5021903;28;20026;-68
2022/06/15 12:23:09;;;;;;;7.25;2.35;;;32.80;84.40;;;;;;5002071;28;20068;-73
2022/06/15 12:26:16;;;;;;;6.90;2.33;;;32.80;84.10;;;;;;5030973;28;20040;-68
2022/06/15 12:28:41;;;;;;;7.65;2.22;;;33.20;86.00;;;;;;5020803;28;20046;-69
2022/06/15 12:31:19;;;;;;;3.78;1.95;;;33.00;79.80;;;;;;5027844;28;20352;-68
2022/06/15 12:33:55;;;;;;;6.95;2.30;;;33.10;81.90;;;;;;5014577;28;20498;-69
2022/06/15 12:36:28;;;;;;;5.13;2.05;;;33.40;83.80;;;;;;5014581;28;20515;-68
2022/06/15 12:39:28;;;;;;;7.28;2.22;;;33.40;83.00;;;;;;5015722;28;20401;-68
2022/06/15 12:42:09;;;;;;;5.13;2.30;;;33.70;79.10;;;;;;5014694;28;20021;-68
2022/06/15 12:44:56;;;;;;;4.65;2.13;;;33.30;79.50;;;;;;5010924;28;20044;-68
2022/06/15 12:47:25;;;;;;;5.10;2.00;;;33.00;83.60;;;;;;5014170;28;20436;-68
2022/06/15 12:50:08;;;;;;;6.60;2.08;;;33.10;82.40;;;;;;5014130;28;20460;-68
2022/06/15 12:52:47;;;;;;;9.95;2.35;;;33.20;79.70;;;;;;5011099;28;20068;-69
2022/06/15 12:55:36;;;;;;;7.78;2.00;;;33.10;82.40;;;;;;5011791;28;20045;-68
2022/06/15 12:58:16;;;;;;;6.82;2.10;;;33.30;83.10;;;;;;5013938;28;20479;-68
2022/06/15 13:00:54;;;;;;;3.67;2.22;;;33.30;83.60;;;;;;5009010;28;20660;-69
2022/06/15 13:03:38;;;;;;;5.00;1.80;;;33.30;82.10;;;;;;5014756;28;20040;-68
2022/06/15 13:06:27;;;;;;;7.60;2.17;;;33.00;82.30;;;;;;5014593;28;20029;-68
2022/06/15 13:09:20;;;;;;;3.45;2.03;;;32.80;82.70;;;;;;4998729;28;20427;-68
2022/06/15 13:12:04;;;;;;;6.72;1.88;;;32.60;83.50;;;;;;5007535;28;20231;-68
2022/06/15 13:14:53;;;;;;;4.88;1.95;;;32.70;81.80;;;;;;5003894;28;20024;-68
2022/06/15 13:17:23;;;;;;;5.43;2.00;;;32.80;81.50;;;;;;5004781;28;20058;-69
2022/06/15 13:20:10;;;;;;;5.38;1.90;;;33.10;81.70;;;;;;5010830;28;20018;-68
2022/06/15 13:22:41;;;;;;;4.78;2.08;;;33.00;79.10;;;;;;5019838;28;20025;-69
2022/06/15 13:25:17;;;;;;;5.85;2.05;;;32.90;80.90;;;;;;5023848;28;20037;-68
2022/06/15 13:28:08;;;;;;;4.10;2.10;;;32.90;80.50;;;;;;5014314;28;20018;-69
2022/06/15 13:30:49;;;;;;;4.18;1.80;;;32.80;79.60;;;;;;5012643;28;20033;-69